Kalmar, Sweden

8:06 AM CEST on July 29, 2015 (GMT +0200)
ILNKALMA2 | | Change Station
CLOSE
Current Station
Personal Weather Station
Location: Kalmar, Djurangen, Kalmar Lan
Elevation: 23 ft
Nearby Weather Stations

Elev 23 ft 56.69 °N, 16.33 °E | Updated 15 seconds ago

Mostly Cloudy
Mostly Cloudy
60.6 °F
Feels Like 60.6 °F
N
0.0
Wind Variable Wind from North
Gusts 0.0 mph

Today
High -- | Low -- °F
--% Chance of Precip.
Yesterday
High -- | Low -- °F
Precip. -- in
4:48 AM 9:12 PM
Waxing Gibbous, 94% visible
Pressure 29.47 in
Visibility 6.2 miles
Clouds Few 900 ft
Scattered Clouds 1400 ft
Mostly Cloudy 1600 ft
Dew Point 56 °F
Humidity 84%
Rainfall 0.00 in
Snow Depth Not available.
UV 1 out of 12
Pollen Not available.
Air Quality Not available.
Flu Activity Not available.
METAR ESMQ 290550Z 21006KT 9999 FEW009 SCT014 BKN016 15/14 Q0998

More Conditions Fewer Conditions

Pressure 29.47 in
Visibility 6.2 miles
Clouds Few 900 ft
Scattered Clouds 1400 ft
Mostly Cloudy 1600 ft
Dew Point 56 °F
Humidity 84%
Rainfall 0.00 in
Snow Depth Not available.
UV 1 out of 12
Pollen Not available.
Air Quality Not available.
Flu Activity Not available.
METAR ESMQ 290550Z 21006KT 9999 FEW009 SCT014 BKN016 15/14 Q0998

More Conditions Fewer Conditions

10-Day Weather Forecast

×

Almanac

Astronomy

Jul. 29, 2015 Rise Set
Actual Time
Civil Twilight
Nautical Twilight
Astronomical Twilight
Moon
Length of Visible Light
Length of Day
Tomorrow will be .
, % of the Moon is Illuminated

Today's Extremes

Country Highs Country Lows

Community

WunderPhotos

Upload Photos

1,842,060 photos uploaded!

WunderBlogs® & News

Nearby

Air Quality

  Air Quality AQ Index Pollutant
Not available.

Snow Depth

Station Depth Elevation

Earthquake Activity

City Distance Mag. Time & Date
Minimum magnitude displayed is 2.5.

Coastal Water Temperatures

Place Temperature

Stations

Nearby Weather Stations

Station Location Temp. Windchill Dew Point Humidity Wind Precip. Elev Updated Type